Time;durP1;ratioP1;P1;durP2;ratioP2;P2;SDS_P1;SDS_P2;PMS_P1;PMS_P2;Temp;Humidity;BMP_temperature;BMP_pressure;BME280_temperature;BME280_humidity;BME280_pressure;Samples;Min_cycle;Max_cycle;Signal;HPM_P1;HPM_P2
2021/07/30 00:00:27;;;;;;;27.17;25.53;;;17.50;82.30;;;;;;5045307;28;20447;-74
2021/07/30 00:02:54;;;;;;;26.90;25.30;;;17.50;82.10;;;;;;5034263;28;21016;-74
2021/07/30 00:05:21;;;;;;;26.90;25.30;;;17.40;82.30;;;;;;5045658;28;20454;-74
2021/07/30 00:07:49;;;;;;;27.40;25.80;;;17.30;82.60;;;;;;5038569;28;20567;-74
2021/07/30 00:10:16;;;;;;;27.07;25.50;;;17.40;82.20;;;;;;5046480;28;20837;-74
2021/07/30 00:12:43;;;;;;;27.77;26.10;;;17.40;82.30;;;;;;5043655;28;20462;-74
2021/07/30 00:15:10;;;;;;;26.30;24.80;;;17.30;82.60;;;;;;5046897;28;20828;-74
2021/07/30 00:17:37;;;;;;;26.37;24.87;;;17.10;83.00;;;;;;5042431;28;20608;-74
2021/07/30 00:20:06;;;;;;;27.37;25.77;;;17.10;82.90;;;;;;5047569;28;20539;-74
2021/07/30 00:22:33;;;;;;;26.10;24.50;;;17.10;83.00;;;;;;5046377;28;20459;-74
2021/07/30 00:25:02;;;;;;;26.70;25.20;;;17.20;82.80;;;;;;5046175;28;20459;-74
2021/07/30 00:27:29;;;;;;;26.10;24.50;;;17.20;82.70;;;;;;5041999;28;20482;-72
2021/07/30 00:29:56;;;;;;;26.03;24.37;;;17.10;82.90;;;;;;5043754;28;20965;-72
2021/07/30 00:32:22;;;;;;;25.83;24.23;;;17.10;83.10;;;;;;5045336;28;20558;-72
2021/07/30 00:34:49;;;;;;;26.40;24.80;;;17.00;83.20;;;;;;5046256;28;20463;-74
2021/07/30 00:37:16;;;;;;;26.30;24.70;;;17.00;83.40;;;;;;5040631;28;20497;-74
2021/07/30 00:39:43;;;;;;;25.33;23.83;;;17.00;83.20;;;;;;5042989;28;20454;-74
2021/07/30 00:42:12;;;;;;;26.20;24.70;;;17.00;83.30;;;;;;5042274;28;20451;-74
2021/07/30 00:44:38;;;;;;;26.03;24.50;;;17.00;83.20;;;;;;5045435;28;20451;-75
2021/07/30 00:47:05;;;;;;;26.50;24.90;;;17.00;83.20;;;;;;5042785;28;21116;-74
2021/07/30 00:49:33;;;;;;;26.33;24.73;;;17.00;83.10;;;;;;5043756;28;20469;-74
2021/07/30 00:52:00;;;;;;;26.10;24.50;;;16.90;83.10;;;;;;5043555;28;20479;-73
2021/07/30 00:54:27;;;;;;;26.17;24.67;;;16.90;83.10;;;;;;5046704;28;20463;-74
2021/07/30 00:56:55;;;;;;;26.03;24.50;;;16.80;83.30;;;;;;5044342;28;20510;-74
2021/07/30 00:59:24;;;;;;;25.53;24.13;;;16.80;83.50;;;;;;5044387;28;20526;-74
2021/07/30 01:01:51;;;;;;;25.90;24.20;;;16.80;83.60;;;;;;5042479;28;20819;-75
2021/07/30 01:04:18;;;;;;;26.73;24.60;;;16.70;83.70;;;;;;5038106;28;20483;-74
2021/07/30 01:06:46;;;;;;;26.80;24.70;;;16.70;83.70;;;;;;5041795;28;20477;-74
2021/07/30 01:09:13;;;;;;;26.03;24.53;;;16.70;83.80;;;;;;5044177;28;20516;-74
2021/07/30 01:11:40;;;;;;;26.00;24.50;;;16.60;83.90;;;;;;5044589;28;20470;-74
2021/07/30 01:14:09;;;;;;;26.27;24.77;;;16.60;83.90;;;;;;5043315;28;20473;-74
2021/07/30 01:16:39;;;;;;;25.67;24.27;;;16.60;83.90;;;;;;5045349;28;20502;-74
2021/07/30 01:19:07;;;;;;;25.90;24.40;;;16.60;84.00;;;;;;5045317;28;20447;-74
2021/07/30 01:21:35;;;;;;;27.03;25.33;;;16.60;84.00;;;;;;5038554;28;20462;-74
2021/07/30 01:24:04;;;;;;;26.43;24.70;;;16.60;84.00;;;;;;5048330;28;20465;-74
2021/07/30 01:26:31;;;;;;;25.53;24.03;;;16.60;84.00;;;;;;5048025;28;20489;-73
2021/07/30 01:28:58;;;;;;;26.63;24.87;;;16.60;83.90;;;;;;5048227;28;20469;-73
2021/07/30 01:31:25;;;;;;;25.57;24.10;;;16.60;84.00;;;;;;5046209;28;20991;-73
2021/07/30 01:33:52;;;;;;;25.57;24.07;;;16.60;83.90;;;;;;5050081;28;20473;-73
2021/07/30 01:36:18;;;;;;;26.53;24.90;;;16.60;84.00;;;;;;5046510;28;20510;-73
2021/07/30 01:38:45;;;;;;;25.93;24.43;;;16.50;84.00;;;;;;5049581;28;20473;-73
2021/07/30 01:41:15;;;;;;;26.10;24.53;;;16.50;83.90;;;;;;5044209;28;20465;-73
2021/07/30 01:43:43;;;;;;;26.10;24.60;;;16.50;83.90;;;;;;5048501;28;20451;-73
2021/07/30 01:46:10;;;;;;;27.30;25.40;;;16.50;84.20;;;;;;5048213;28;20561;-73
2021/07/30 01:48:38;;;;;;;26.23;24.73;;;16.50;84.10;;;;;;5050218;28;20470;-72
2021/07/30 01:51:06;;;;;;;26.10;24.60;;;16.50;84.10;;;;;;5048498;28;20474;-73
2021/07/30 01:53:33;;;;;;;26.80;25.10;;;16.40;84.30;;;;;;5050895;28;20451;-73
2021/07/30 01:56:03;;;;;;;26.50;24.70;;;16.40;84.10;;;;;;5048452;28;20479;-73
2021/07/30 01:58:33;;;;;;;25.63;24.03;;;16.40;84.20;;;;;;5047397;28;20463;-73
2021/07/30 02:01:00;;;;;;;25.70;24.10;;;16.40;84.30;;;;;;5041778;28;21048;-73
2021/07/30 02:03:27;;;;;;;26.67;25.07;;;16.30;84.50;;;;;;5046537;28;20538;-72
2021/07/30 02:05:54;;;;;;;26.43;24.83;;;16.30;84.50;;;;;;5046103;28;20935;-73
2021/07/30 02:08:20;;;;;;;26.63;24.93;;;16.30;84.50;;;;;;5046418;28;20461;-73
2021/07/30 02:10:47;;;;;;;27.00;25.30;;;16.20;84.60;;;;;;5047830;28;20489;-73
2021/07/30 02:16:00;;;;;;;26.83;24.83;;;16.20;84.60;;;;;;5047668;28;20493;-73
2021/07/30 02:18:27;;;;;;;26.30;24.80;;;16.30;84.50;;;;;;5049679;28;21280;-72
2021/07/30 02:20:54;;;;;;;26.03;24.47;;;16.20;84.40;;;;;;5041803;28;20460;-73
2021/07/30 02:23:21;;;;;;;26.90;25.30;;;16.20;84.30;;;;;;5047790;28;20459;-73
2021/07/30 02:25:49;;;;;;;26.37;24.87;;;16.20;84.30;;;;;;5042573;28;20574;-74
2021/07/30 02:28:16;;;;;;;26.97;25.37;;;16.10;84.50;;;;;;5048924;28;20467;-74
2021/07/30 02:30:42;;;;;;;26.07;24.47;;;16.10;84.80;;;;;;5044816;28;20475;-74
2021/07/30 02:33:11;;;;;;;27.60;25.87;;;16.10;84.80;;;;;;5045284;28;20546;-74
2021/07/30 02:35:37;;;;;;;28.70;26.90;;;16.20;84.50;;;;;;5047541;28;20456;-74
2021/07/30 02:38:04;;;;;;;27.90;26.20;;;16.10;84.70;;;;;;5047384;28;20459;-74
2021/07/30 02:40:31;;;;;;;26.43;24.83;;;16.10;84.50;;;;;;5044317;28;20471;-74
2021/07/30 02:42:58;;;;;;;26.87;24.93;;;16.10;84.50;;;;;;5047204;28;20511;-73
2021/07/30 02:45:25;;;;;;;26.67;25.07;;;16.10;84.80;;;;;;5046997;28;20481;-74
2021/07/30 02:47:52;;;;;;;26.97;25.37;;;16.10;84.80;;;;;;5048294;28;20458;-73
2021/07/30 02:50:20;;;;;;;28.07;26.30;;;16.10;85.00;;;;;;5048292;28;20469;-73
2021/07/30 02:52:47;;;;;;;26.37;24.77;;;16.10;84.70;;;;;;5045043;28;20464;-73
2021/07/30 02:55:14;;;;;;;26.90;25.27;;;16.10;84.70;;;;;;5049744;28;20490;-73
2021/07/30 02:57:41;;;;;;;25.10;23.70;;;16.10;84.80;;;;;;5043518;28;20562;-73
2021/07/30 03:00:08;;;;;;;25.40;23.80;;;16.10;85.00;;;;;;5046851;28;20455;-72
2021/07/30 03:02:35;;;;;;;26.67;25.10;;;16.10;84.80;;;;;;5043975;28;20455;-73
2021/07/30 03:05:02;;;;;;;26.30;24.70;;;16.00;84.70;;;;;;5048105;28;20559;-73
2021/07/30 03:07:30;;;;;;;27.27;25.63;;;16.00;84.30;;;;;;5044418;28;20474;-73
2021/07/30 03:09:57;;;;;;;26.40;24.83;;;16.00;84.70;;;;;;5050452;28;20459;-73
2021/07/30 03:12:24;;;;;;;27.23;25.43;;;15.90;85.10;;;;;;5045288;28;20486;-74
2021/07/30 03:14:51;;;;;;;26.93;25.23;;;15.90;85.10;;;;;;5044354;28;20847;-73
2021/07/30 03:17:18;;;;;;;28.00;26.30;;;15.80;85.20;;;;;;5048498;28;20590;-73
2021/07/30 03:19:45;;;;;;;26.37;24.60;;;15.80;85.20;;;;;;5047023;28;20546;-72
2021/07/30 03:22:12;;;;;;;26.30;24.70;;;15.80;85.20;;;;;;5044409;28;20904;-72
2021/07/30 03:24:41;;;;;;;26.33;24.83;;;15.80;85.20;;;;;;5047688;28;20459;-72
2021/07/30 03:27:07;;;;;;;28.27;26.33;;;15.80;85.40;;;;;;5047214;28;20566;-72
2021/07/30 03:29:34;;;;;;;26.07;24.40;;;15.80;85.40;;;;;;5045910;28;20470;-73
2021/07/30 03:32:01;;;;;;;24.40;23.03;;;15.70;85.50;;;;;;5042596;28;20754;-73
2021/07/30 03:34:32;;;;;;;26.43;24.83;;;15.70;85.70;;;;;;5046222;28;20463;-73
2021/07/30 03:37:00;;;;;;;31.23;29.43;;;15.70;85.80;;;;;;5037235;28;20860;-73
2021/07/30 03:39:27;;;;;;;26.40;24.57;;;15.70;85.80;;;;;;5046838;28;20467;-73
2021/07/30 03:41:56;;;;;;;30.97;28.87;;;15.70;85.80;;;;;;5041225;28;20455;-73
2021/07/30 03:44:23;;;;;;;26.27;24.77;;;15.70;85.70;;;;;;5046710;28;20467;-72
2021/07/30 03:46:49;;;;;;;26.87;25.17;;;15.60;85.90;;;;;;5042439;28;20479;-72
2021/07/30 03:49:16;;;;;;;28.40;26.80;;;15.60;86.00;;;;;;5045620;28;20458;-72
2021/07/30 03:51:43;;;;;;;27.03;25.33;;;15.60;86.30;;;;;;5042657;28;20570;-72
2021/07/30 03:54:10;;;;;;;27.07;25.40;;;15.60;86.30;;;;;;5045762;28;20463;-72
2021/07/30 03:56:39;;;;;;;29.10;26.43;;;15.60;86.30;;;;;;5043190;28;20485;-72
2021/07/30 03:59:08;;;;;;;27.60;25.90;;;15.60;86.50;;;;;;5047437;28;20546;-72
2021/07/30 04:01:35;;;;;;;28.30;26.27;;;15.60;86.50;;;;;;5044557;28;20455;-72
2021/07/30 04:04:02;;;;;;;28.73;26.97;;;15.60;86.60;;;;;;5042433;28;20562;-72
2021/07/30 04:06:29;;;;;;;27.63;25.93;;;15.60;86.60;;;;;;5044831;28;20479;-72
2021/07/30 04:08:56;;;;;;;28.30;26.60;;;15.60;86.70;;;;;;5044690;28;20471;-72
2021/07/30 04:11:23;;;;;;;33.70;31.90;;;15.70;86.50;;;;;;5040432;28;20475;-72
2021/07/30 04:13:51;;;;;;;27.53;25.83;;;15.70;86.30;;;;;;5036920;28;20957;-72
2021/07/30 04:16:19;;;;;;;28.93;27.10;;;15.70;85.90;;;;;;5041345;28;20487;-72
2021/07/30 04:18:46;;;;;;;28.47;26.77;;;15.60;85.60;;;;;;5045546;28;20551;-72
2021/07/30 04:21:13;;;;;;;30.47;28.43;;;15.60;85.60;;;;;;5044561;28;20451;-72
2021/07/30 04:23:40;;;;;;;27.83;26.23;;;15.60;85.70;;;;;;5047077;28;20463;-72
2021/07/30 04:26:08;;;;;;;28.63;26.90;;;15.70;85.50;;;;;;5045725;28;20486;-72
2021/07/30 04:28:35;;;;;;;26.40;24.80;;;15.70;85.40;;;;;;5047664;28;20463;-72
2021/07/30 04:31:05;;;;;;;27.80;26.03;;;15.70;85.50;;;;;;5043440;28;20455;-72
2021/07/30 04:33:33;;;;;;;28.43;26.63;;;15.80;85.30;;;;;;5038094;28;20470;-72
2021/07/30 04:36:00;;;;;;;28.83;26.93;;;15.90;85.10;;;;;;5042010;28;20478;-72
2021/07/30 04:38:27;;;;;;;27.57;25.97;;;16.00;84.70;;;;;;5046060;28;20818;-73
2021/07/30 04:40:54;;;;;;;27.17;25.57;;;16.10;84.50;;;;;;5044837;28;20460;-72
2021/07/30 04:43:21;;;;;;;27.60;26.00;;;16.20;84.10;;;;;;5045884;28;20446;-70
2021/07/30 04:45:48;;;;;;;27.30;25.70;;;16.30;83.60;;;;;;5042737;28;20471;-72
2021/07/30 04:48:15;;;;;;;28.27;26.50;;;16.30;83.70;;;;;;5038954;28;20467;-72
2021/07/30 04:50:43;;;;;;;27.73;26.03;;;16.40;83.60;;;;;;5041179;28;20469;-73
2021/07/30 04:53:10;;;;;;;29.03;27.27;;;16.50;83.40;;;;;;5043930;28;20484;-72
2021/07/30 04:55:36;;;;;;;27.40;25.40;;;16.50;83.40;;;;;;5046697;28;20459;-72
2021/07/30 04:58:04;;;;;;;27.57;26.00;;;16.60;83.40;;;;;;5045967;28;20844;-72
2021/07/30 05:00:31;;;;;;;29.30;27.30;;;16.80;82.80;;;;;;5046129;28;21246;-72
2021/07/30 05:02:57;;;;;;;31.33;29.43;;;16.90;82.60;;;;;;5043541;28;20691;-72
2021/07/30 05:05:24;;;;;;;29.40;27.70;;;17.00;82.00;;;;;;5042981;28;20447;-73
2021/07/30 05:07:53;;;;;;;33.27;31.30;;;17.00;82.10;;;;;;5043175;28;20550;-72
2021/07/30 05:10:20;;;;;;;28.30;26.40;;;17.00;81.80;;;;;;5038529;28;20447;-72
2021/07/30 05:12:46;;;;;;;29.53;27.33;;;17.00;81.70;;;;;;5047290;28;20488;-73
2021/07/30 05:15:14;;;;;;;30.17;28.37;;;17.10;81.50;;;;;;5038288;28;20556;-73
2021/07/30 05:17:41;;;;;;;29.23;27.23;;;17.10;81.50;;;;;;5044143;28;20479;-73
2021/07/30 05:20:09;;;;;;;28.00;26.20;;;17.20;81.50;;;;;;5043935;28;20472;-75
2021/07/30 05:22:38;;;;;;;29.97;27.93;;;17.20;81.50;;;;;;5046782;28;20451;-73
2021/07/30 05:25:11;;;;;;;33.70;31.40;;;17.30;81.30;;;;;;5048086;28;20570;-77
2021/07/30 05:27:38;;;;;;;28.30;26.60;;;17.40;81.20;;;;;;5044492;28;20479;-77
2021/07/30 05:30:06;;;;;;;31.33;29.47;;;17.50;80.80;;;;;;5047300;28;20458;-76
2021/07/30 05:32:33;;;;;;;32.87;30.40;;;17.60;80.60;;;;;;5043418;28;20481;-74
2021/07/30 05:35:00;;;;;;;28.80;27.10;;;17.70;80.50;;;;;;5047054;28;20470;-75
2021/07/30 05:37:27;;;;;;;31.30;29.00;;;17.70;80.50;;;;;;5037151;28;20834;-77
2021/07/30 05:39:54;;;;;;;29.50;27.53;;;17.80;80.40;;;;;;5045607;28;20464;-74
2021/07/30 05:42:22;;;;;;;33.47;31.23;;;17.90;80.40;;;;;;5038707;28;20483;-74
2021/07/30 05:44:49;;;;;;;30.53;28.50;;;18.00;80.20;;;;;;5046129;28;20463;-74
2021/07/30 05:47:16;;;;;;;34.30;32.20;;;18.10;79.80;;;;;;5042043;28;20566;-73
2021/07/30 05:49:43;;;;;;;31.97;30.00;;;18.20;79.70;;;;;;5038362;28;20476;-74
2021/07/30 05:52:10;;;;;;;32.60;30.60;;;18.30;79.30;;;;;;5039628;28;20482;-74
2021/07/30 05:54:36;;;;;;;31.80;29.80;;;18.30;79.10;;;;;;5046990;28;20542;-74
2021/07/30 05:57:05;;;;;;;29.73;27.75;;;18.40;78.90;;;;;;5041735;28;20926;-75
2021/07/30 05:59:33;;;;;;;36.80;34.30;;;18.70;78.40;;;;;;5046593;28;20820;-75
2021/07/30 06:02:00;;;;;;;32.27;29.97;;;18.60;78.80;;;;;;5038752;28;20830;-75
2021/07/30 06:04:27;;;;;;;33.83;31.27;;;18.70;78.50;;;;;;5046576;28;20458;-75
2021/07/30 06:06:54;;;;;;;32.40;30.50;;;18.80;78.40;;;;;;5042511;28;20489;-74
2021/07/30 06:09:21;;;;;;;33.90;31.80;;;18.80;78.10;;;;;;5048877;28;20455;-73
2021/07/30 06:11:48;;;;;;;32.87;30.70;;;18.90;78.20;;;;;;5049456;28;20470;-73
2021/07/30 06:14:15;;;;;;;31.37;29.47;;;19.10;77.50;;;;;;5051995;28;21394;-73
2021/07/30 06:16:43;;;;;;;31.67;29.50;;;19.00;77.50;;;;;;5043330;28;20470;-74
2021/07/30 06:19:10;;;;;;;33.63;31.60;;;19.10;77.40;;;;;;5040972;28;20546;-75
2021/07/30 06:21:36;;;;;;;33.13;30.90;;;19.20;76.90;;;;;;5050296;28;20850;-74
2021/07/30 06:24:04;;;;;;;32.73;30.53;;;19.30;76.40;;;;;;5046828;28;20813;-74
2021/07/30 06:26:30;;;;;;;35.27;32.87;;;19.40;76.20;;;;;;5048094;28;20506;-75
2021/07/30 06:28:58;;;;;;;34.90;32.57;;;19.50;76.00;;;;;;5050630;28;20545;-75
2021/07/30 06:31:25;;;;;;;32.33;30.30;;;19.60;75.70;;;;;;5049432;28;21012;-75
2021/07/30 06:33:53;;;;;;;32.10;30.10;;;19.70;75.50;;;;;;5049910;28;21059;-75
2021/07/30 06:36:20;;;;;;;34.27;31.33;;;19.90;75.40;;;;;;5049991;28;20475;-74
2021/07/30 06:38:47;;;;;;;33.80;31.50;;;20.00;75.00;;;;;;5048684;28;20455;-75
2021/07/30 06:41:15;;;;;;;33.20;31.07;;;20.10;74.80;;;;;;5048831;28;20549;-75
2021/07/30 06:43:42;;;;;;;33.43;31.43;;;20.30;73.90;;;;;;5051075;28;20935;-74
2021/07/30 06:46:09;;;;;;;34.10;31.80;;;20.50;73.60;;;;;;5048839;28;20477;-75
2021/07/30 06:48:36;;;;;;;31.90;29.60;;;20.70;72.70;;;;;;5048868;28;20455;-75
2021/07/30 06:51:05;;;;;;;33.07;30.60;;;20.80;71.90;;;;;;5038221;28;20543;-75
2021/07/30 06:53:32;;;;;;;33.93;31.83;;;20.80;71.90;;;;;;5046316;28;20496;-75
2021/07/30 06:55:59;;;;;;;33.00;30.93;;;20.90;72.00;;;;;;5046693;28;20486;-74
2021/07/30 06:58:26;;;;;;;33.00;31.00;;;20.90;72.00;;;;;;5051185;28;20455;-74
2021/07/30 07:00:53;;;;;;;33.47;31.20;;;21.00;71.80;;;;;;5049710;28;20450;-75
2021/07/30 07:03:20;;;;;;;33.23;31.03;;;21.10;71.60;;;;;;5050525;28;20481;-75
2021/07/30 07:05:46;;;;;;;32.97;30.87;;;21.20;71.20;;;;;;5048322;28;20541;-74
2021/07/30 07:08:15;;;;;;;31.80;29.63;;;21.30;70.90;;;;;;5050809;28;20459;-75
2021/07/30 07:10:41;;;;;;;33.53;31.43;;;21.40;70.80;;;;;;5047873;28;20986;-74
2021/07/30 07:13:09;;;;;;;33.17;31.00;;;21.50;70.80;;;;;;5050348;28;20478;-75
2021/07/30 07:15:36;;;;;;;33.90;31.50;;;21.60;70.80;;;;;;5049363;28;20454;-73
2021/07/30 07:18:04;;;;;;;31.93;29.93;;;21.70;70.50;;;;;;5050627;28;20455;-76
2021/07/30 07:20:30;;;;;;;34.20;31.80;;;21.80;70.50;;;;;;5050588;28;21270;-74
2021/07/30 07:22:57;;;;;;;33.50;31.17;;;21.80;70.60;;;;;;5044656;28;20543;-74
2021/07/30 07:25:25;;;;;;;33.97;31.57;;;21.90;70.40;;;;;;5044769;28;20458;-75
2021/07/30 07:27:53;;;;;;;32.97;30.47;;;22.00;70.30;;;;;;5048296;28;20475;-74
2021/07/30 07:30:20;;;;;;;32.43;30.20;;;22.10;70.30;;;;;;5049501;28;20466;-75
2021/07/30 07:32:47;;;;;;;33.13;30.50;;;22.30;69.80;;;;;;5048221;28;20482;-76
2021/07/30 07:35:14;;;;;;;33.63;31.53;;;22.30;69.40;;;;;;5050170;28;20917;-75
2021/07/30 07:37:41;;;;;;;36.10;33.07;;;22.40;68.40;;;;;;5049097;28;20483;-75
2021/07/30 07:40:10;;;;;;;32.37;30.30;;;22.50;68.70;;;;;;5050349;28;20944;-75
2021/07/30 07:42:38;;;;;;;32.30;30.20;;;22.60;68.20;;;;;;5047736;28;20447;-75
2021/07/30 07:45:06;;;;;;;32.03;30.13;;;22.70;68.10;;;;;;5050505;28;20555;-75
2021/07/30 07:47:33;;;;;;;33.80;31.70;;;22.70;67.90;;;;;;5047648;28;20489;-75
2021/07/30 07:50:00;;;;;;;33.17;30.97;;;22.80;67.60;;;;;;5049725;28;20459;-74
2021/07/30 07:52:27;;;;;;;31.30;29.20;;;22.90;67.30;;;;;;5048028;28;20549;-77
2021/07/30 07:54:54;;;;;;;34.50;32.03;;;23.00;66.60;;;;;;5050028;28;20559;-75
2021/07/30 07:57:21;;;;;;;34.63;32.43;;;23.10;65.70;;;;;;5047767;28;20475;-75
2021/07/30 07:59:50;;;;;;;34.33;32.07;;;23.10;65.20;;;;;;5049349;28;21095;-75
2021/07/30 08:02:17;;;;;;;33.33;31.33;;;23.10;65.50;;;;;;5047881;28;20509;-75
2021/07/30 08:04:44;;;;;;;30.83;29.00;;;23.20;65.50;;;;;;5039765;28;20979;-74
2021/07/30 08:07:12;;;;;;;32.83;30.83;;;23.30;65.60;;;;;;5046036;28;20471;-76
2021/07/30 08:09:39;;;;;;;33.37;31.17;;;23.40;65.50;;;;;;5047214;28;20956;-75
2021/07/30 08:12:07;;;;;;;32.13;30.03;;;23.50;65.40;;;;;;5043630;28;20490;-74
2021/07/30 08:14:34;;;;;;;34.60;32.50;;;23.60;65.40;;;;;;5047913;28;20546;-74
2021/07/30 08:17:02;;;;;;;34.37;32.07;;;23.70;65.30;;;;;;5047521;28;20570;-75
2021/07/30 08:19:33;;;;;;;35.93;33.77;;;23.80;65.20;;;;;;5049797;28;20832;-74
2021/07/30 08:22:00;;;;;;;32.17;29.97;;;23.90;64.90;;;;;;5044736;28;20466;-75
2021/07/30 08:24:27;;;;;;;31.60;29.70;;;24.00;64.30;;;;;;5046403;28;20451;-74
2021/07/30 08:26:54;;;;;;;32.30;30.30;;;24.10;64.10;;;;;;5045854;28;20568;-75
2021/07/30 08:29:21;;;;;;;36.17;34.07;;;24.20;63.50;;;;;;5046410;28;20548;-74
2021/07/30 08:31:48;;;;;;;33.80;31.90;;;24.30;63.50;;;;;;5046402;28;20835;-74
2021/07/30 08:34:17;;;;;;;35.90;33.90;;;24.30;63.30;;;;;;5044411;28;20483;-75
2021/07/30 08:36:44;;;;;;;32.37;30.43;;;24.40;63.20;;;;;;5047078;28;20470;-75
2021/07/30 08:39:11;;;;;;;32.70;30.70;;;24.50;62.60;;;;;;5032835;28;20462;-75
2021/07/30 08:41:38;;;;;;;35.90;33.80;;;24.60;63.00;;;;;;5047265;28;20459;-75
2021/07/30 08:44:06;;;;;;;34.53;32.43;;;24.60;62.30;;;;;;5045918;28;20453;-75
2021/07/30 08:46:32;;;;;;;34.20;32.20;;;24.50;61.20;;;;;;5046869;28;20474;-74
2021/07/30 08:49:00;;;;;;;34.40;32.37;;;24.40;60.70;;;;;;5047254;28;20496;-73
2021/07/30 08:51:32;;;;;;;32.80;30.80;;;24.60;59.90;;;;;;5046633;28;20578;-74
2021/07/30 08:54:00;;;;;;;37.00;34.87;;;24.60;58.90;;;;;;5041372;28;20480;-74
2021/07/30 08:56:28;;;;;;;33.27;31.23;;;24.50;59.50;;;;;;5040327;28;20892;-72
2021/07/30 08:58:57;;;;;;;33.97;31.77;;;24.60;59.80;;;;;;5029062;28;21006;-73
2021/07/30 09:01:24;;;;;;;35.20;33.00;;;24.70;59.60;;;;;;5045851;28;20459;-74
2021/07/30 09:03:51;;;;;;;36.40;34.10;;;24.90;59.00;;;;;;5047925;28;20454;-75
2021/07/30 09:06:20;;;;;;;38.10;35.80;;;25.00;58.70;;;;;;5045699;28;20471;-76
2021/07/30 09:09:05;;;;;;;37.53;35.23;;;25.10;58.80;;;;;;5047155;28;20478;-76
2021/07/30 09:11:34;;;;;;;38.70;36.20;;;25.20;59.10;;;;;;5043156;28;20450;-76
2021/07/30 09:14:03;;;;;;;34.77;32.77;;;25.30;59.00;;;;;;5046224;28;20486;-76
2021/07/30 09:16:30;;;;;;;36.47;34.00;;;25.30;58.80;;;;;;5047116;28;21014;-76
2021/07/30 09:19:05;;;;;;;35.90;33.60;;;25.20;59.00;;;;;;5049100;28;20454;-76
2021/07/30 09:21:34;;;;;;;34.93;32.73;;;25.30;58.90;;;;;;5035176;28;20454;-76
2021/07/30 09:24:05;;;;;;;35.63;33.33;;;25.40;59.10;;;;;;5043614;28;20547;-76
2021/07/30 09:26:37;;;;;;;34.60;32.30;;;25.50;59.20;;;;;;5039434;28;20844;-76
2021/07/30 09:29:09;;;;;;;37.40;35.00;;;25.60;58.80;;;;;;5048826;28;20447;-76
2021/07/30 09:31:44;;;;;;;37.07;34.50;;;25.70;58.90;;;;;;5045766;28;20458;-77
2021/07/30 09:34:22;;;;;;;35.90;33.63;;;25.70;59.20;;;;;;5046501;28;20853;-76
2021/07/30 09:36:52;;;;;;;34.20;32.00;;;25.80;58.70;;;;;;5046465;28;20478;-76
2021/07/30 09:39:23;;;;;;;33.23;31.13;;;25.90;58.20;;;;;;5048413;28;20477;-76
2021/07/30 09:42:04;;;;;;;35.50;33.30;;;25.90;58.40;;;;;;5047110;28;20454;-76
2021/07/30 09:44:31;;;;;;;33.90;31.80;;;26.10;58.30;;;;;;5051531;28;20458;-76
2021/07/30 09:47:13;;;;;;;35.57;32.70;;;26.20;58.40;;;;;;5049787;28;20481;-76
2021/07/30 09:49:51;;;;;;;38.70;36.60;;;26.20;58.30;;;;;;5049845;28;20454;-76
2021/07/30 09:52:20;;;;;;;34.67;32.50;;;26.40;58.00;;;;;;5049492;28;20959;-76
2021/07/30 09:54:53;;;;;;;36.47;34.07;;;26.40;57.90;;;;;;5052932;28;20483;-76
2021/07/30 09:57:22;;;;;;;34.87;32.57;;;26.50;58.00;;;;;;5049364;28;20480;-76
2021/07/30 09:59:49;;;;;;;36.47;34.17;;;26.60;58.20;;;;;;5051690;28;20467;-76
2021/07/30 10:02:19;;;;;;;35.00;32.90;;;26.70;57.50;;;;;;5050070;28;20546;-76
2021/07/30 10:04:48;;;;;;;35.97;33.87;;;26.70;57.00;;;;;;5049863;28;20897;-75
2021/07/30 10:07:20;;;;;;;34.30;32.27;;;26.50;57.40;;;;;;5049465;28;20470;-76
2021/07/30 10:09:53;;;;;;;36.80;34.57;;;26.20;58.10;;;;;;5048660;28;20455;-76
2021/07/30 10:12:22;;;;;;;36.40;34.07;;;26.30;58.40;;;;;;5050084;28;20623;-75
2021/07/30 10:14:49;;;;;;;34.07;32.07;;;26.50;58.30;;;;;;5050915;28;20489;-76
2021/07/30 10:17:17;;;;;;;37.50;35.37;;;26.60;58.10;;;;;;5050930;28;20486;-76
2021/07/30 10:19:45;;;;;;;35.20;33.20;;;26.80;58.20;;;;;;5051555;28;20455;-76
2021/07/30 10:22:15;;;;;;;38.90;36.57;;;27.00;57.80;;;;;;5048965;28;20930;-75
2021/07/30 10:24:55;;;;;;;36.10;33.90;;;27.20;57.80;;;;;;5052227;28;20455;-76
2021/07/30 10:27:26;;;;;;;37.40;34.90;;;27.50;57.10;;;;;;5049895;28;20475;-76
2021/07/30 10:30:17;;;;;;;35.30;33.20;;;27.70;57.00;;;;;;5051945;28;20492;-76
2021/07/30 10:32:47;;;;;;;36.20;33.90;;;27.90;56.20;;;;;;5049524;28;20546;-76
2021/07/30 10:35:15;;;;;;;38.13;35.83;;;27.90;56.00;;;;;;5051491;28;20447;-76
2021/07/30 10:37:43;;;;;;;36.97;34.70;;;28.10;55.50;;;;;;5050014;28;20974;-76
2021/07/30 10:40:23;;;;;;;35.93;33.73;;;28.00;55.30;;;;;;5050356;28;20554;-76
2021/07/30 10:43:03;;;;;;;35.40;33.30;;;27.70;55.60;;;;;;5047858;28;20541;-74
2021/07/30 10:45:30;;;;;;;40.00;37.70;;;27.70;55.90;;;;;;5044977;28;20467;-75
2021/07/30 10:48:34;;;;;;;36.13;33.90;;;27.90;56.00;;;;;;5043493;28;20466;-76
2021/07/30 10:51:02;;;;;;;37.03;34.63;;;28.30;55.30;;;;;;5044466;28;20451;-78
2021/07/30 10:53:50;;;;;;;38.37;36.03;;;28.50;54.70;;;;;;5046865;28;20506;-77
2021/07/30 10:56:48;;;;;;;36.77;34.50;;;28.50;54.40;;;;;;5047028;28;20626;-78
2021/07/30 10:59:19;;;;;;;36.57;34.33;;;28.50;54.80;;;;;;5050351;28;20457;-73
2021/07/30 11:02:02;;;;;;;37.97;35.67;;;28.60;54.30;;;;;;5045995;28;20451;-73
2021/07/30 11:04:30;;;;;;;37.07;34.73;;;28.70;54.30;;;;;;5048446;28;20457;-73
2021/07/30 11:06:59;;;;;;;35.00;32.87;;;28.50;54.20;;;;;;5044608;28;20519;-74
2021/07/30 11:09:36;;;;;;;41.00;38.40;;;28.50;54.60;;;;;;5043135;28;20531;-74
2021/07/30 11:12:04;;;;;;;36.37;33.87;;;28.60;54.50;;;;;;5043483;28;20986;-75
2021/07/30 11:14:35;;;;;;;40.23;37.73;;;28.10;54.70;;;;;;5046805;28;20562;-75
2021/07/30 11:17:04;;;;;;;34.77;32.53;;;28.00;55.00;;;;;;5044282;28;20506;-75
2021/07/30 11:19:32;;;;;;;36.93;34.67;;;28.10;55.00;;;;;;5046074;28;20463;-73
2021/07/30 11:22:01;;;;;;;35.93;33.83;;;27.80;55.10;;;;;;5045333;28;20802;-73
2021/07/30 11:24:28;;;;;;;40.53;38.00;;;27.30;56.20;;;;;;5049485;28;20456;-73
2021/07/30 11:26:56;;;;;;;40.30;38.00;;;27.00;56.80;;;;;;5047492;28;20475;-73
2021/07/30 11:29:24;;;;;;;38.77;36.47;;;27.00;57.30;;;;;;5048775;28;20466;-72
2021/07/30 11:31:55;;;;;;;38.20;35.83;;;27.00;57.40;;;;;;5044069;28;20467;-73
2021/07/30 11:34:25;;;;;;;39.17;36.87;;;27.00;57.60;;;;;;5043360;28;20833;-75
2021/07/30 11:36:53;;;;;;;38.70;36.50;;;26.90;57.70;;;;;;5047629;28;20513;-72
2021/07/30 11:39:20;;;;;;;39.20;37.03;;;27.00;57.40;;;;;;5049897;28;20537;-74
2021/07/30 11:41:49;;;;;;;38.53;36.23;;;27.20;57.00;;;;;;5048104;28;20459;-75
2021/07/30 11:44:17;;;;;;;37.80;35.50;;;27.20;57.20;;;;;;5046056;28;20463;-74
2021/07/30 11:46:55;;;;;;;39.97;37.30;;;27.30;57.30;;;;;;5047377;28;20483;-73
2021/07/30 11:49:34;;;;;;;35.90;33.70;;;27.40;56.30;;;;;;5043209;28;20446;-73
2021/07/30 11:52:05;;;;;;;37.60;35.30;;;27.60;56.30;;;;;;5048088;28;20546;-73
2021/07/30 11:54:34;;;;;;;39.93;37.43;;;27.80;56.30;;;;;;5048893;28;20939;-77
2021/07/30 11:57:01;;;;;;;36.80;34.13;;;27.90;56.30;;;;;;5048566;28;20548;-74
2021/07/30 11:59:43;;;;;;;41.27;38.53;;;28.20;55.90;;;;;;5046421;28;20459;-73
2021/07/30 12:02:11;;;;;;;36.43;34.23;;;28.40;54.30;;;;;;5047871;28;20814;-74
2021/07/30 12:04:48;;;;;;;37.73;35.23;;;28.30;54.80;;;;;;5049499;28;20451;-73
2021/07/30 12:07:18;;;;;;;37.90;35.70;;;28.20;54.80;;;;;;5047429;28;20832;-74
2021/07/30 12:09:49;;;;;;;40.87;38.40;;;28.10;55.50;;;;;;5047505;28;20551;-75
2021/07/30 12:12:16;;;;;;;40.10;37.60;;;28.10;55.40;;;;;;5046702;28;20466;-74
2021/07/30 12:14:48;;;;;;;39.87;37.37;;;28.10;55.70;;;;;;5046936;28;20556;-74
2021/07/30 12:17:18;;;;;;;42.63;39.60;;;28.30;56.40;;;;;;5047350;28;20482;-74
2021/07/30 12:19:58;;;;;;;41.80;39.17;;;28.50;55.70;;;;;;5039994;28;20477;-74
2021/07/30 12:22:35;;;;;;;39.80;37.17;;;28.80;55.00;;;;;;5040494;28;20539;-76
2021/07/30 12:25:03;;;;;;;40.17;37.50;;;29.10;54.50;;;;;;5045182;28;20462;-76
2021/07/30 12:27:30;;;;;;;40.87;38.17;;;29.20;54.30;;;;;;5045715;28;20888;-77
2021/07/30 12:29:57;;;;;;;38.53;36.10;;;29.40;53.70;;;;;;5049255;28;20870;-77
2021/07/30 12:32:36;;;;;;;41.27;38.87;;;29.60;53.90;;;;;;5043408;28;20854;-76
2021/07/30 12:35:06;;;;;;;37.93;35.70;;;29.60;54.00;;;;;;5046166;28;20478;-75
2021/07/30 12:37:37;;;;;;;42.80;39.93;;;29.60;53.70;;;;;;5046202;28;20513;-75